createdAt,value
2022-07-30T00:00:11.493Z,0.00
2022-07-30T00:01:11.512Z,0.00
2022-07-30T00:02:11.423Z,0.00
2022-07-30T00:03:11.401Z,0.00
2022-07-30T00:04:11.377Z,0.00
2022-07-30T00:05:11.380Z,0.00
2022-07-30T00:06:11.333Z,0.00
2022-07-30T00:07:11.309Z,0.00
2022-07-30T00:08:11.287Z,0.00
2022-07-30T00:09:11.264Z,0.00
2022-07-30T00:10:11.269Z,0.00
2022-07-30T00:11:11.218Z,0.00
2022-07-30T00:12:11.194Z,0.00
2022-07-30T00:13:14.064Z,0.00
2022-07-30T00:14:11.152Z,0.00
2022-07-30T00:15:11.157Z,0.00
2022-07-30T00:16:11.173Z,0.00
2022-07-30T00:17:11.126Z,0.00
2022-07-30T00:18:11.168Z,0.00
2022-07-30T00:19:11.041Z,0.00
2022-07-30T00:20:11.358Z,0.00
2022-07-30T00:21:11.176Z,0.00
2022-07-30T00:22:11.975Z,0.00
2022-07-30T00:23:10.955Z,0.00
2022-07-30T00:24:10.935Z,0.00
2022-07-30T00:25:10.937Z,0.00
2022-07-30T00:26:10.890Z,0.00
2022-07-30T00:27:10.862Z,0.00
2022-07-30T00:28:10.863Z,0.00
2022-07-30T00:29:10.823Z,0.00
2022-07-30T00:30:10.823Z,0.00
2022-07-30T00:31:10.829Z,0.00
2022-07-30T00:32:10.758Z,0.00
2022-07-30T00:33:10.729Z,0.00
2022-07-30T00:34:10.709Z,0.00
2022-07-30T00:35:10.713Z,0.00
2022-07-30T00:36:10.668Z,0.00
2022-07-30T00:37:10.644Z,0.00
2022-07-30T00:38:10.623Z,0.00
2022-07-30T00:39:10.601Z,0.00
2022-07-30T00:40:10.602Z,0.00
2022-07-30T00:41:10.553Z,0.00
2022-07-30T00:42:10.529Z,0.00
2022-07-30T00:43:10.506Z,0.00
2022-07-30T00:44:10.487Z,0.00
2022-07-30T00:45:10.496Z,0.00
2022-07-30T00:46:10.565Z,0.00
2022-07-30T00:47:10.422Z,0.00
2022-07-30T00:48:10.396Z,0.00
2022-07-30T00:49:10.429Z,0.00
2022-07-30T00:50:10.380Z,0.00
2022-07-30T00:51:10.329Z,0.00
2022-07-30T00:52:10.305Z,0.00
2022-07-30T00:53:10.281Z,0.00
2022-07-30T00:54:10.263Z,0.00
2022-07-30T00:55:10.271Z,0.00
2022-07-30T00:56:10.219Z,0.00
2022-07-30T00:57:10.198Z,0.00
2022-07-30T00:58:10.172Z,0.00
2022-07-30T00:59:10.155Z,0.00
2022-07-30T01:00:10.157Z,0.00
2022-07-30T01:01:10.176Z,0.00
2022-07-30T01:02:10.173Z,0.00
2022-07-30T01:03:10.065Z,0.00
2022-07-30T01:04:10.123Z,0.00
2022-07-30T01:05:10.049Z,0.00
2022-07-30T01:06:14.545Z,0.00
2022-07-30T01:07:09.977Z,0.00
2022-07-30T01:08:10.039Z,0.00
2022-07-30T01:09:09.937Z,0.00
2022-07-30T01:10:09.948Z,0.00
2022-07-30T01:11:09.895Z,0.00
2022-07-30T01:12:09.869Z,0.00
2022-07-30T01:13:09.862Z,0.00
2022-07-30T01:14:09.832Z,0.00
2022-07-30T01:15:09.808Z,0.00
2022-07-30T01:16:09.856Z,0.00
2022-07-30T01:17:09.764Z,0.00
2022-07-30T01:18:09.743Z,0.00
2022-07-30T01:19:09.732Z,0.00
2022-07-30T01:20:09.729Z,0.00
2022-07-30T01:21:09.702Z,0.00
2022-07-30T01:22:09.658Z,0.00
2022-07-30T01:23:09.632Z,0.00
2022-07-30T01:24:09.614Z,0.00
2022-07-30T01:25:09.593Z,0.00
2022-07-30T01:26:09.595Z,0.00
2022-07-30T01:27:09.545Z,0.00
2022-07-30T01:28:09.518Z,0.00
2022-07-30T01:29:09.502Z,0.00
2022-07-30T01:30:09.506Z,0.00
2022-07-30T01:31:09.487Z,0.00
2022-07-30T01:32:09.430Z,0.00
2022-07-30T01:33:09.409Z,0.00
2022-07-30T01:34:09.388Z,0.00
2022-07-30T01:35:09.366Z,0.00
2022-07-30T01:36:09.373Z,0.00
2022-07-30T01:37:09.321Z,0.00
2022-07-30T01:38:09.302Z,0.00
2022-07-30T01:39:09.279Z,0.00
2022-07-30T01:40:09.289Z,0.00
2022-07-30T01:41:09.234Z,0.00
2022-07-30T01:42:09.250Z,0.00
2022-07-30T01:43:09.189Z,0.00
2022-07-30T01:44:09.167Z,0.00
2022-07-30T01:45:09.151Z,0.00
2022-07-30T01:46:09.231Z,0.00
2022-07-30T01:47:09.100Z,0.00
2022-07-30T01:48:09.076Z,0.00
2022-07-30T01:49:09.074Z,0.00
2022-07-30T01:50:11.129Z,0.00
2022-07-30T01:51:09.037Z,0.00
2022-07-30T01:52:08.989Z,0.00
2022-07-30T01:53:08.967Z,0.00
2022-07-30T01:54:08.945Z,0.00
2022-07-30T01:55:16.965Z,0.00
2022-07-30T01:56:10.719Z,0.00
2022-07-30T01:57:08.876Z,0.00
2022-07-30T01:58:08.853Z,0.00
2022-07-30T01:59:09.519Z,0.00
2022-07-30T02:00:08.811Z,0.00
2022-07-30T02:01:08.866Z,0.00
2022-07-30T02:02:08.798Z,0.00
2022-07-30T02:03:08.856Z,0.00
2022-07-30T02:04:08.726Z,0.00
2022-07-30T02:05:08.706Z,0.00
2022-07-30T02:06:08.731Z,0.00
2022-07-30T02:07:08.662Z,0.00
2022-07-30T02:08:08.645Z,0.00
2022-07-30T02:09:10.703Z,0.00
2022-07-30T02:10:08.604Z,0.00
2022-07-30T02:11:08.606Z,0.00
2022-07-30T02:12:08.558Z,0.00
2022-07-30T02:13:08.534Z,0.00
2022-07-30T02:14:08.510Z,0.00
2022-07-30T02:15:08.488Z,0.00
2022-07-30T02:16:08.544Z,0.00
2022-07-30T02:17:08.444Z,0.00
2022-07-30T02:18:09.423Z,0.00
2022-07-30T02:19:08.400Z,0.00
2022-07-30T02:20:10.096Z,0.00
2022-07-30T02:21:11.446Z,0.00
2022-07-30T02:22:08.546Z,0.00
2022-07-30T02:23:08.315Z,0.00
2022-07-30T02:24:08.294Z,0.00
2022-07-30T02:25:08.269Z,0.00
2022-07-30T02:26:08.273Z,0.00
2022-07-30T02:27:08.227Z,0.00
2022-07-30T02:28:08.201Z,0.00
2022-07-30T02:29:11.235Z,0.00
2022-07-30T02:30:09.162Z,0.00
2022-07-30T02:31:17.656Z,0.00
2022-07-30T02:32:09.113Z,0.00
2022-07-30T02:33:08.091Z,0.00
2022-07-30T02:34:08.072Z,0.00
2022-07-30T02:35:08.049Z,0.00
2022-07-30T02:36:11.341Z,0.00
2022-07-30T02:37:08.007Z,0.00
2022-07-30T02:38:07.980Z,0.00
2022-07-30T02:39:07.956Z,0.00
2022-07-30T02:40:07.932Z,0.00
2022-07-30T02:41:07.939Z,0.00
2022-07-30T02:42:07.889Z,0.00
2022-07-30T02:43:07.865Z,0.00
2022-07-30T02:44:07.845Z,0.00
2022-07-30T02:45:07.824Z,0.00
2022-07-30T02:46:07.824Z,0.00
2022-07-30T02:47:07.857Z,0.00
2022-07-30T02:48:07.759Z,0.00
2022-07-30T02:49:07.824Z,0.00
2022-07-30T02:50:07.711Z,0.00
2022-07-30T02:51:07.716Z,0.00
2022-07-30T02:52:07.667Z,0.00
2022-07-30T02:53:07.642Z,0.00
2022-07-30T02:54:07.619Z,0.00
2022-07-30T02:55:07.604Z,0.00
2022-07-30T02:56:07.607Z,0.00
2022-07-30T02:57:07.554Z,0.00
2022-07-30T02:58:07.539Z,0.00
2022-07-30T02:59:07.511Z,0.00
2022-07-30T03:00:07.487Z,0.00
2022-07-30T03:01:07.606Z,0.00
2022-07-30T03:02:07.479Z,0.00
2022-07-30T03:03:07.426Z,0.00
2022-07-30T03:04:07.399Z,0.00
2022-07-30T03:05:07.376Z,0.00
2022-07-30T03:06:07.401Z,0.00
2022-07-30T03:07:08.591Z,0.00
2022-07-30T03:08:08.341Z,0.00
2022-07-30T03:09:07.292Z,0.00
2022-07-30T03:10:07.269Z,0.00
2022-07-30T03:11:07.270Z,0.00
2022-07-30T03:12:07.224Z,0.00
2022-07-30T03:13:07.204Z,4.00
2022-07-30T03:14:07.176Z,4.00
2022-07-30T03:15:07.157Z,4.00
2022-07-30T03:16:07.188Z,0.00
2022-07-30T03:17:07.114Z,4.00
2022-07-30T03:18:07.093Z,4.00
2022-07-30T03:19:07.068Z,4.00
2022-07-30T03:20:07.047Z,4.00
2022-07-30T03:21:07.057Z,4.00
2022-07-30T03:22:07.003Z,8.00
2022-07-30T03:23:06.978Z,4.00
2022-07-30T03:24:06.959Z,8.00
2022-07-30T03:25:06.934Z,4.00
2022-07-30T03:26:06.938Z,8.00
2022-07-30T03:27:06.887Z,8.00
2022-07-30T03:28:06.872Z,12.00
2022-07-30T03:29:06.842Z,12.00
2022-07-30T03:30:06.822Z,16.00
2022-07-30T03:31:06.858Z,16.00
2022-07-30T03:32:06.819Z,16.00
2022-07-30T03:33:06.755Z,16.00
2022-07-30T03:34:06.734Z,20.00
2022-07-30T03:35:08.844Z,24.00
2022-07-30T03:36:07.711Z,24.00
2022-07-30T03:37:06.680Z,24.00
2022-07-30T03:38:06.642Z,24.00
2022-07-30T03:39:06.620Z,28.00
2022-07-30T03:40:06.597Z,28.00
2022-07-30T03:41:06.610Z,28.00
2022-07-30T03:42:06.555Z,32.00
2022-07-30T03:43:18.557Z,32.00
2022-07-30T03:44:07.513Z,36.00
2022-07-30T03:45:06.490Z,40.00
2022-07-30T03:46:06.559Z,44.00
2022-07-30T03:47:06.498Z,44.00
2022-07-30T03:48:06.421Z,48.00
2022-07-30T03:49:06.482Z,48.00
2022-07-30T03:50:06.391Z,52.00
2022-07-30T03:51:06.357Z,60.00
2022-07-30T03:52:06.344Z,64.00
2022-07-30T03:53:06.317Z,72.00
2022-07-30T03:54:08.453Z,80.00
2022-07-30T03:55:07.273Z,88.00
2022-07-30T03:56:06.281Z,104.00
2022-07-30T03:57:06.228Z,116.00
2022-07-30T03:58:06.208Z,124.00
2022-07-30T03:59:06.184Z,128.00
2022-07-30T04:00:06.165Z,136.00
2022-07-30T04:01:06.166Z,144.00
2022-07-30T04:02:07.427Z,156.00
2022-07-30T04:03:06.095Z,164.00
2022-07-30T04:04:06.140Z,176.00
2022-07-30T04:05:06.048Z,184.00
2022-07-30T04:06:06.057Z,196.00
2022-07-30T04:07:06.004Z,212.00
2022-07-30T04:08:05.984Z,228.00
2022-07-30T04:09:05.959Z,244.00
2022-07-30T04:10:05.938Z,260.00
2022-07-30T04:11:05.949Z,268.00
2022-07-30T04:12:05.896Z,280.00
2022-07-30T04:13:09.441Z,288.00
2022-07-30T04:14:06.876Z,296.00
2022-07-30T04:16:35.555Z,304.00
2022-07-30T04:16:38.956Z,312.00
2022-07-30T04:17:07.826Z,320.00
2022-07-30T04:18:05.767Z,328.00
2022-07-30T04:19:05.767Z,332.00
2022-07-30T04:20:05.715Z,344.00
2022-07-30T04:21:05.719Z,356.00
2022-07-30T04:22:05.669Z,372.00
2022-07-30T04:23:05.647Z,388.00
2022-07-30T04:24:05.866Z,408.00
2022-07-30T04:25:05.601Z,424.00
2022-07-30T04:26:05.606Z,444.00
2022-07-30T04:27:05.562Z,468.00
2022-07-30T04:28:05.538Z,496.00
2022-07-30T04:29:05.521Z,524.00
2022-07-30T04:30:05.489Z,552.00
2022-07-30T04:31:05.552Z,588.00
2022-07-30T04:32:05.448Z,620.00
2022-07-30T04:33:05.430Z,652.00
2022-07-30T04:34:05.405Z,672.00
2022-07-30T04:35:05.380Z,684.00
2022-07-30T04:36:05.388Z,688.00
2022-07-30T04:37:05.338Z,692.00
2022-07-30T04:38:05.316Z,704.00
2022-07-30T04:39:05.292Z,720.00
2022-07-30T04:40:05.272Z,744.00
2022-07-30T04:41:05.273Z,776.00
2022-07-30T04:42:05.226Z,800.00
2022-07-30T04:43:05.206Z,828.00
2022-07-30T04:44:05.186Z,860.00
2022-07-30T04:45:05.161Z,880.00
2022-07-30T04:46:05.209Z,888.00
2022-07-30T04:47:05.118Z,900.00
2022-07-30T04:48:05.095Z,904.00
2022-07-30T04:49:05.153Z,920.00
2022-07-30T04:50:05.049Z,948.00
2022-07-30T04:51:05.058Z,944.00
2022-07-30T04:52:05.011Z,944.00
2022-07-30T04:53:04.986Z,960.00
2022-07-30T04:54:04.967Z,980.00
2022-07-30T04:55:04.941Z,988.00
2022-07-30T04:56:04.945Z,988.00
2022-07-30T04:57:05.129Z,972.00
2022-07-30T04:58:04.892Z,932.00
2022-07-30T04:59:04.849Z,888.00
2022-07-30T05:00:04.829Z,860.00
2022-07-30T05:01:04.828Z,840.00
2022-07-30T05:02:04.856Z,844.00
2022-07-30T05:03:04.763Z,852.00
2022-07-30T05:04:04.736Z,876.00
2022-07-30T05:05:04.800Z,888.00
2022-07-30T05:06:04.719Z,896.00
2022-07-30T05:07:05.094Z,892.00
2022-07-30T05:08:04.644Z,876.00
2022-07-30T05:09:04.626Z,868.00
2022-07-30T05:10:04.597Z,864.00
2022-07-30T05:11:04.600Z,868.00
2022-07-30T05:12:04.551Z,880.00
2022-07-30T05:13:04.535Z,892.00
2022-07-30T05:14:04.505Z,904.00
2022-07-30T05:15:04.487Z,912.00
2022-07-30T05:16:04.572Z,924.00
2022-07-30T05:17:04.626Z,936.00
2022-07-30T05:18:04.984Z,952.00
2022-07-30T05:19:07.605Z,972.00
2022-07-30T05:20:05.383Z,984.00
2022-07-30T05:21:04.385Z,996.00
2022-07-30T05:22:06.746Z,1004.00
2022-07-30T05:23:05.312Z,1016.00
2022-07-30T05:24:04.293Z,1024.00
2022-07-30T05:25:04.267Z,1028.00
2022-07-30T05:26:04.277Z,1036.00
2022-07-30T05:27:04.437Z,1052.00
2022-07-30T05:28:04.203Z,1084.00
2022-07-30T05:29:07.246Z,1148.00
2022-07-30T05:30:04.162Z,1244.00
2022-07-30T05:31:08.199Z,1372.00
2022-07-30T05:32:04.115Z,1504.00
2022-07-30T05:33:12.203Z,1644.00
2022-07-30T05:34:05.073Z,1776.00
2022-07-30T05:35:04.048Z,1892.00
2022-07-30T05:36:04.055Z,2000.00
2022-07-30T05:37:04.368Z,2072.00
2022-07-30T05:38:03.985Z,2124.00
2022-07-30T05:39:03.963Z,2156.00
2022-07-30T05:40:03.973Z,2176.00
2022-07-30T05:41:03.944Z,2188.00
2022-07-30T05:42:04.900Z,2216.00
2022-07-30T05:43:03.877Z,2256.00
2022-07-30T05:44:03.869Z,2272.00
2022-07-30T05:45:03.835Z,2288.00
2022-07-30T05:46:03.884Z,2316.00
2022-07-30T05:47:03.958Z,2388.00
2022-07-30T05:48:03.762Z,2488.00
2022-07-30T05:49:04.888Z,2576.00
2022-07-30T05:50:05.507Z,2656.00
2022-07-30T05:51:04.733Z,2732.00
2022-07-30T05:52:03.679Z,2784.00
2022-07-30T05:53:03.661Z,2840.00
2022-07-30T05:54:03.639Z,2972.00
2022-07-30T05:55:03.616Z,3144.00
2022-07-30T05:56:03.619Z,3300.00
2022-07-30T05:57:04.029Z,3388.00
2022-07-30T05:58:04.551Z,3336.00
2022-07-30T05:59:03.534Z,3192.00
2022-07-30T06:00:03.511Z,3020.00
2022-07-30T06:01:03.509Z,2848.00
2022-07-30T06:02:03.623Z,2700.00
2022-07-30T06:03:03.453Z,2616.00
2022-07-30T06:04:03.450Z,2604.00
2022-07-30T06:05:03.519Z,2624.00
2022-07-30T06:06:03.410Z,2648.00
2022-07-30T06:07:03.755Z,2692.00
2022-07-30T06:08:03.337Z,2732.00
2022-07-30T06:09:03.314Z,2760.00
2022-07-30T06:10:03.295Z,2780.00
2022-07-30T06:11:03.310Z,2808.00
2022-07-30T06:12:03.247Z,2856.00
2022-07-30T06:13:03.225Z,2904.00
2022-07-30T06:14:03.208Z,2952.00
2022-07-30T06:15:03.187Z,2976.00
2022-07-30T06:16:03.212Z,2972.00
2022-07-30T06:17:03.564Z,2996.00
2022-07-30T06:18:03.120Z,3020.00
2022-07-30T06:19:03.530Z,3044.00
2022-07-30T06:20:03.065Z,3088.00
2022-07-30T06:21:04.079Z,3132.00
2022-07-30T06:22:06.678Z,3180.00
2022-07-30T06:23:03.004Z,3240.00
2022-07-30T06:24:02.981Z,3324.00
2022-07-30T06:25:02.961Z,3424.00
2022-07-30T06:26:02.967Z,3520.00
2022-07-30T06:27:03.477Z,3580.00
2022-07-30T06:28:15.645Z,3624.00
2022-07-30T06:29:04.875Z,3648.00
2022-07-30T06:30:02.857Z,3664.00
2022-07-30T06:31:02.910Z,3664.00
2022-07-30T06:32:02.812Z,3656.00
2022-07-30T06:33:02.794Z,3640.00
2022-07-30T06:34:02.778Z,3628.00
2022-07-30T06:35:05.000Z,3620.00
2022-07-30T06:36:03.748Z,3616.00
2022-07-30T06:37:03.129Z,3612.00
2022-07-30T06:38:07.291Z,3608.00
2022-07-30T06:39:03.657Z,3620.00
2022-07-30T06:40:02.639Z,3660.00
2022-07-30T06:41:04.484Z,3720.00
2022-07-30T06:42:02.590Z,3800.00
2022-07-30T06:43:02.567Z,3908.00
2022-07-30T06:44:02.554Z,4024.00
2022-07-30T06:45:02.523Z,4128.00
2022-07-30T06:46:02.573Z,4224.00
2022-07-30T06:47:07.475Z,4304.00
2022-07-30T06:48:04.449Z,4360.00
2022-07-30T06:49:02.501Z,4424.00
2022-07-30T06:50:02.410Z,4508.00
2022-07-30T06:51:02.392Z,4628.00
2022-07-30T06:52:02.397Z,4796.00
2022-07-30T06:53:02.346Z,5012.00
2022-07-30T06:54:02.332Z,5296.00
2022-07-30T06:55:02.305Z,5588.00
2022-07-30T06:56:02.287Z,5844.00
2022-07-30T06:57:02.682Z,6052.00
2022-07-30T06:58:02.239Z,6216.00
2022-07-30T06:59:02.222Z,6384.00
2022-07-30T07:00:02.202Z,6556.00
2022-07-30T07:01:02.304Z,6768.00
2022-07-30T07:02:02.187Z,6992.00
2022-07-30T07:03:02.141Z,7216.00
2022-07-30T07:04:02.154Z,7436.00
2022-07-30T07:05:02.093Z,7656.00
2022-07-30T07:06:02.073Z,7820.00
2022-07-30T07:07:12.198Z,7940.00
2022-07-30T07:08:03.033Z,7980.00
2022-07-30T07:09:02.016Z,7964.00
2022-07-30T07:10:01.990Z,7988.00
2022-07-30T07:11:01.973Z,8108.00
2022-07-30T07:12:01.984Z,8324.00
2022-07-30T07:13:01.941Z,8624.00
2022-07-30T07:14:04.659Z,8896.00
2022-07-30T07:15:02.885Z,9036.00
2022-07-30T07:16:01.870Z,9044.00
2022-07-30T07:17:02.259Z,8984.00
2022-07-30T07:18:02.361Z,8972.00
2022-07-30T07:19:01.799Z,9004.00
2022-07-30T07:20:02.782Z,9064.00
2022-07-30T07:21:02.765Z,9060.00
2022-07-30T07:22:01.768Z,8928.00
2022-07-30T07:23:06.574Z,8572.00
2022-07-30T07:24:03.699Z,8084.00
2022-07-30T07:25:01.691Z,7652.00
2022-07-30T07:26:01.660Z,7308.00
2022-07-30T07:27:02.045Z,7072.00
2022-07-30T07:28:12.039Z,6952.00
2022-07-30T07:29:05.221Z,6960.00
2022-07-30T07:30:05.525Z,7052.00
2022-07-30T07:31:01.608Z,7320.00
2022-07-30T07:32:05.707Z,7784.00
2022-07-30T07:33:02.517Z,8444.00
2022-07-30T07:34:01.509Z,9112.00
2022-07-30T07:35:01.494Z,9668.00
2022-07-30T07:36:01.463Z,9968.00
2022-07-30T07:37:01.752Z,10136.00
2022-07-30T07:38:01.418Z,10340.00
2022-07-30T07:39:02.401Z,10824.00
2022-07-30T07:40:01.386Z,11512.00
2022-07-30T07:41:01.362Z,12896.00
2022-07-30T07:42:01.368Z,13800.00
2022-07-30T07:43:01.320Z,15232.00
2022-07-30T07:44:01.301Z,18176.00
2022-07-30T07:45:01.285Z,16832.00
2022-07-30T07:46:01.333Z,17088.00
2022-07-30T07:47:01.606Z,17184.00
2022-07-30T07:48:01.229Z,17376.00
2022-07-30T07:49:01.288Z,17440.00
2022-07-30T07:50:01.186Z,17504.00
2022-07-30T07:51:01.167Z,17984.00
2022-07-30T07:52:01.174Z,19072.00
2022-07-30T07:53:01.132Z,20064.00
2022-07-30T07:54:20.493Z,20992.00
2022-07-30T07:55:03.347Z,22656.00
2022-07-30T07:56:01.074Z,23840.00
2022-07-30T07:57:01.298Z,24864.00
2022-07-30T07:58:01.033Z,26496.00
2022-07-30T07:59:01.018Z,28224.00
2022-07-30T08:00:00.996Z,30976.00
2022-07-30T08:01:01.019Z,34464.00
2022-07-30T08:02:01.052Z,75200.00
2022-07-30T08:03:00.943Z,42784.00
2022-07-30T08:04:00.926Z,64064.00
2022-07-30T08:05:00.906Z,73152.00
2022-07-30T08:06:05.793Z,64256.00
2022-07-30T08:07:02.356Z,69664.00
2022-07-30T08:08:00.855Z,49696.00
2022-07-30T08:09:00.833Z,37184.00
2022-07-30T08:10:00.820Z,34176.00
2022-07-30T08:11:00.801Z,31584.00
2022-07-30T08:12:00.812Z,31840.00
2022-07-30T08:13:00.764Z,32544.00
2022-07-30T08:14:00.743Z,33312.00
2022-07-30T08:15:00.732Z,29728.00
2022-07-30T08:16:00.707Z,31840.00
2022-07-30T08:17:01.277Z,30304.00
2022-07-30T08:18:00.678Z,47808.00
2022-07-30T08:19:01.458Z,33312.00
2022-07-30T08:20:00.639Z,44896.00
2022-07-30T08:21:00.621Z,25216.00
2022-07-30T08:22:00.631Z,24160.00
2022-07-30T08:23:00.588Z,23008.00
2022-07-30T08:24:00.571Z,21760.00
2022-07-30T08:25:00.554Z,21024.00
2022-07-30T08:26:00.535Z,20416.00
2022-07-30T08:27:00.806Z,20192.00
2022-07-30T08:28:00.501Z,20352.00
2022-07-30T08:29:00.481Z,20704.00
2022-07-30T08:30:00.463Z,21280.00
2022-07-30T08:31:02.411Z,22208.00
2022-07-30T08:32:01.720Z,23136.00
2022-07-30T08:33:00.414Z,24192.00
2022-07-30T08:34:00.394Z,26656.00
2022-07-30T08:35:00.376Z,37856.00
2022-07-30T08:36:04.176Z,49344.00
2022-07-30T08:37:00.363Z,55968.00
2022-07-30T08:38:00.321Z,59360.00
2022-07-30T08:39:00.306Z,59744.00
2022-07-30T08:40:00.288Z,59744.00
2022-07-30T08:41:00.268Z,58464.00
2022-07-30T08:42:00.529Z,54720.00
2022-07-30T08:43:00.237Z,49696.00
2022-07-30T08:44:00.219Z,38816.00
2022-07-30T08:45:00.221Z,58912.00
2022-07-30T08:46:00.186Z,59200.00
2022-07-30T08:47:00.450Z,30976.00
2022-07-30T08:48:00.149Z,34304.00
2022-07-30T08:49:05.369Z,34496.00
2022-07-30T08:50:01.110Z,30976.00
2022-07-30T08:51:00.095Z,27264.00
2022-07-30T08:52:00.369Z,27744.00
2022-07-30T08:53:00.068Z,56096.00
2022-07-30T08:54:00.089Z,42016.00
2022-07-30T08:55:00.022Z,35008.00
2022-07-30T08:56:00.006Z,30336.00
2022-07-30T08:57:00.014Z,35968.00
2022-07-30T08:57:59.966Z,48320.00
2022-07-30T08:58:59.949Z,45440.00
2022-07-30T09:00:01.710Z,45312.00
2022-07-30T09:00:59.918Z,31648.00
2022-07-30T09:02:00.139Z,52160.00
2022-07-30T09:02:59.880Z,33184.00
2022-07-30T09:04:00.613Z,63200.00
2022-07-30T09:04:59.844Z,57248.00
2022-07-30T09:05:59.827Z,58656.00
2022-07-30T09:07:00.029Z,54080.00
2022-07-30T09:07:59.790Z,57568.00
2022-07-30T09:08:59.771Z,50272.00
2022-07-30T09:09:59.753Z,39872.00
2022-07-30T09:10:59.740Z,53888.00
2022-07-30T09:11:59.749Z,39808.00
2022-07-30T09:12:59.700Z,49952.00
2022-07-30T09:13:59.680Z,40064.00
2022-07-30T09:14:59.666Z,42208.00
2022-07-30T09:15:59.643Z,39904.00
2022-07-30T09:17:00.715Z,36736.00
2022-07-30T09:18:00.451Z,49632.00
2022-07-30T09:18:59.596Z,53632.00
2022-07-30T09:19:59.584Z,32512.00
2022-07-30T09:20:59.563Z,28640.00
2022-07-30T09:21:59.566Z,24704.00
2022-07-30T09:22:59.521Z,23104.00
2022-07-30T09:23:59.502Z,22400.00
2022-07-30T09:24:59.483Z,22016.00
2022-07-30T09:25:59.468Z,21536.00
2022-07-30T09:27:00.380Z,21248.00
2022-07-30T09:27:59.433Z,21152.00
2022-07-30T09:28:59.946Z,21120.00
2022-07-30T09:29:59.411Z,20928.00
2022-07-30T09:30:59.380Z,20800.00
2022-07-30T09:31:59.725Z,20768.00
2022-07-30T09:32:59.344Z,20672.00
2022-07-30T09:33:59.328Z,20480.00
2022-07-30T09:34:59.310Z,20256.00
2022-07-30T09:35:59.297Z,19904.00
2022-07-30T09:36:59.303Z,19584.00
2022-07-30T09:38:02.969Z,19264.00
2022-07-30T09:39:01.239Z,18976.00
2022-07-30T09:39:59.908Z,18848.00
2022-07-30T09:41:04.878Z,18784.00
2022-07-30T09:42:00.492Z,18688.00
2022-07-30T09:42:59.201Z,18592.00
2022-07-30T09:43:59.155Z,18496.00
2022-07-30T09:44:59.138Z,18464.00
2022-07-30T09:45:59.120Z,18560.00
2022-07-30T09:46:59.133Z,18880.00
2022-07-30T09:47:59.085Z,19392.00
2022-07-30T09:48:59.087Z,20096.00
2022-07-30T09:50:02.806Z,22208.00
2022-07-30T09:51:00.034Z,23136.00
2022-07-30T09:51:59.018Z,25344.00
2022-07-30T09:52:59.030Z,26176.00
2022-07-30T09:53:58.979Z,25376.00
2022-07-30T09:54:59.943Z,24992.00
2022-07-30T09:55:58.947Z,25248.00
2022-07-30T09:56:58.932Z,25664.00
2022-07-30T09:57:58.993Z,25920.00
2022-07-30T09:58:58.892Z,26176.00
2022-07-30T09:59:59.987Z,26112.00
2022-07-30T10:01:00.432Z,25728.00
2022-07-30T10:02:00.950Z,25472.00
2022-07-30T10:02:58.847Z,25280.00
2022-07-30T10:03:58.803Z,25472.00
2022-07-30T10:04:58.789Z,25760.00
2022-07-30T10:05:58.772Z,25984.00
2022-07-30T10:06:58.752Z,27040.00
2022-07-30T10:07:58.760Z,26080.00
2022-07-30T10:08:58.715Z,24960.00
2022-07-30T10:09:58.695Z,23264.00
2022-07-30T10:10:58.675Z,22048.00
2022-07-30T10:11:59.808Z,21088.00
2022-07-30T10:12:58.671Z,20224.00
2022-07-30T10:13:58.624Z,19968.00
2022-07-30T10:14:58.608Z,19584.00
2022-07-30T10:15:58.597Z,18944.00
2022-07-30T10:16:58.571Z,18752.00
2022-07-30T10:17:58.587Z,18304.00
2022-07-30T10:18:58.538Z,18208.00
2022-07-30T10:19:58.528Z,18176.00
2022-07-30T10:20:58.506Z,17952.00
2022-07-30T10:21:58.561Z,17504.00
2022-07-30T10:22:58.493Z,17152.00
2022-07-30T10:23:58.451Z,16832.00
2022-07-30T10:24:58.433Z,16736.00
2022-07-30T10:25:58.419Z,16576.00
2022-07-30T10:26:58.475Z,16448.00
2022-07-30T10:27:58.405Z,16128.00
2022-07-30T10:28:58.360Z,15648.00
2022-07-30T10:29:58.343Z,14732.00
2022-07-30T10:30:58.327Z,13832.00
2022-07-30T10:31:58.312Z,12936.00
2022-07-30T10:32:58.324Z,12172.00
2022-07-30T10:33:58.276Z,11616.00
2022-07-30T10:34:58.257Z,11196.00
2022-07-30T10:35:58.237Z,11048.00
2022-07-30T10:36:58.218Z,11236.00
2022-07-30T10:37:59.055Z,11688.00
2022-07-30T10:38:58.182Z,12268.00
2022-07-30T10:39:58.161Z,12816.00
2022-07-30T10:40:58.148Z,13224.00
2022-07-30T10:41:58.129Z,13492.00
2022-07-30T10:42:58.140Z,13684.00
2022-07-30T10:43:58.095Z,13684.00
2022-07-30T10:44:58.076Z,13180.00
2022-07-30T10:45:58.062Z,12744.00
2022-07-30T10:46:59.418Z,12008.00
2022-07-30T10:47:59.057Z,11316.00
2022-07-30T10:48:58.077Z,10968.00
2022-07-30T10:49:58.994Z,10980.00
2022-07-30T10:50:57.976Z,11192.00
2022-07-30T10:51:57.957Z,11460.00
2022-07-30T10:52:57.967Z,11712.00
2022-07-30T10:53:57.923Z,11960.00
2022-07-30T10:54:57.905Z,12272.00
2022-07-30T10:55:57.890Z,12660.00
2022-07-30T10:56:57.870Z,12976.00
2022-07-30T10:57:57.882Z,13228.00
2022-07-30T10:58:57.832Z,13636.00
2022-07-30T10:59:57.813Z,13964.00
2022-07-30T11:00:57.795Z,14160.00
2022-07-30T11:01:57.781Z,14408.00
2022-07-30T11:02:57.793Z,14912.00
2022-07-30T11:03:57.741Z,15296.00
2022-07-30T11:04:57.722Z,15520.00
2022-07-30T11:05:57.740Z,15744.00
2022-07-30T11:06:57.687Z,16448.00
2022-07-30T11:07:57.701Z,16352.00
2022-07-30T11:08:58.131Z,16352.00
2022-07-30T11:10:08.749Z,16256.00
2022-07-30T11:10:58.615Z,15936.00
2022-07-30T11:12:01.821Z,15488.00
2022-07-30T11:12:58.618Z,14656.00
2022-07-30T11:13:57.591Z,13576.00
2022-07-30T11:14:57.554Z,12720.00
2022-07-30T11:15:57.532Z,12000.00
2022-07-30T11:16:57.515Z,11332.00
2022-07-30T11:17:58.083Z,10616.00
2022-07-30T11:19:27.220Z,9788.00
2022-07-30T11:20:01.813Z,9084.00
2022-07-30T11:20:57.447Z,8460.00
2022-07-30T11:21:57.427Z,8124.00
2022-07-30T11:22:57.435Z,7968.00
2022-07-30T11:23:57.392Z,7764.00
2022-07-30T11:24:57.369Z,7564.00
2022-07-30T11:25:57.356Z,7316.00
2022-07-30T11:26:57.334Z,6936.00
2022-07-30T11:27:57.346Z,6536.00
2022-07-30T11:28:57.314Z,6268.00
2022-07-30T11:29:57.307Z,6148.00
2022-07-30T11:30:57.267Z,6104.00
2022-07-30T11:31:59.507Z,6132.00
2022-07-30T11:32:57.260Z,6220.00
2022-07-30T11:33:57.712Z,6400.00
2022-07-30T11:34:57.196Z,6660.00
2022-07-30T11:35:57.178Z,6944.00
2022-07-30T11:36:57.161Z,7224.00
2022-07-30T11:37:57.171Z,7516.00
2022-07-30T11:39:00.088Z,7772.00
2022-07-30T11:39:59.100Z,8008.00
2022-07-30T11:40:57.084Z,8216.00
2022-07-30T11:41:57.067Z,8440.00
2022-07-30T11:42:57.072Z,8688.00
2022-07-30T11:43:57.031Z,8932.00
2022-07-30T11:45:00.951Z,9180.00
2022-07-30T11:45:57.994Z,9416.00
2022-07-30T11:46:56.977Z,9648.00
2022-07-30T11:48:00.092Z,9852.00
2022-07-30T11:48:57.115Z,10024.00
2022-07-30T11:49:56.919Z,10168.00
2022-07-30T11:51:00.743Z,10300.00
2022-07-30T11:51:57.879Z,10456.00
2022-07-30T11:52:56.888Z,10632.00
2022-07-30T11:53:56.845Z,10808.00
2022-07-30T11:54:56.827Z,10980.00
2022-07-30T11:55:56.806Z,11052.00
2022-07-30T11:57:00.731Z,11132.00
2022-07-30T11:57:57.798Z,11180.00
2022-07-30T11:58:56.752Z,11204.00
2022-07-30T11:59:56.732Z,11092.00
2022-07-30T12:00:56.723Z,10764.00
2022-07-30T12:01:56.693Z,10440.00
2022-07-30T12:02:59.843Z,10112.00
2022-07-30T12:03:56.656Z,9736.00
2022-07-30T12:04:56.636Z,9256.00
2022-07-30T12:05:56.618Z,8780.00
2022-07-30T12:06:56.601Z,8424.00
2022-07-30T12:07:56.606Z,8244.00
2022-07-30T12:08:58.802Z,8140.00
2022-07-30T12:09:56.546Z,8084.00
2022-07-30T12:10:56.528Z,8144.00
2022-07-30T12:11:56.508Z,8232.00
2022-07-30T12:12:56.515Z,8304.00
2022-07-30T12:13:56.470Z,8328.00
2022-07-30T12:15:01.571Z,8468.00
2022-07-30T12:15:58.434Z,8636.00
2022-07-30T12:16:56.417Z,8716.00
2022-07-30T12:18:17.575Z,8836.00
2022-07-30T12:18:58.385Z,8972.00
2022-07-30T12:19:56.362Z,9272.00
2022-07-30T12:20:57.624Z,9648.00